Time;durP1;ratioP1;P1;durP2;ratioP2;P2;SDS_P1;SDS_P2;PMS_P1;PMS_P2;Temp;Humidity;BMP_temperature;BMP_pressure;BME280_temperature;BME280_humidity;BME280_pressure;Samples;Min_cycle;Max_cycle;Signal;HPM_P1;HPM_P2
2023/11/17 00:01:48;;;;;;;5.10;4.60;;;11.30;99.90;;;;;;5025217;28;20494;-33
2023/11/17 00:04:16;;;;;;;4.97;4.00;;;11.20;99.90;;;;;;5021016;28;20463;-38
2023/11/17 00:06:45;;;;;;;4.73;3.93;;;11.20;99.90;;;;;;5021678;28;20433;-39
2023/11/17 00:09:11;;;;;;;6.43;4.10;;;11.20;99.90;;;;;;5019523;28;20448;-35
2023/11/17 00:11:37;;;;;;;5.63;4.37;;;11.20;99.90;;;;;;5019954;28;20514;-39
2023/11/17 00:14:04;;;;;;;4.53;3.90;;;11.20;99.90;;;;;;5028909;28;20802;-40
2023/11/17 00:16:33;;;;;;;4.83;4.33;;;11.20;99.90;;;;;;5020820;28;20246;-40
2023/11/17 00:18:59;;;;;;;5.20;4.33;;;11.20;99.90;;;;;;5025163;28;20429;-40
2023/11/17 00:21:27;;;;;;;5.47;4.22;;;11.20;99.90;;;;;;5019937;28;21253;-37
2023/11/17 00:23:53;;;;;;;4.17;3.77;;;11.20;99.90;;;;;;5018739;28;20202;-40
2023/11/17 00:26:20;;;;;;;5.40;4.47;;;11.20;99.90;;;;;;4998817;28;20530;-36
2023/11/17 00:28:51;;;;;;;6.57;3.95;;;11.20;99.90;;;;;;5014319;28;20436;-37
2023/11/17 00:31:17;;;;;;;4.87;3.93;;;11.10;99.90;;;;;;5009831;28;20948;-39
2023/11/17 00:33:45;;;;;;;4.43;4.03;;;11.20;99.90;;;;;;5030741;28;20778;-41
2023/11/17 00:36:12;;;;;;;5.77;4.27;;;11.20;99.90;;;;;;5030849;28;20437;-39
2023/11/17 00:38:43;;;;;;;6.03;3.90;;;11.10;99.90;;;;;;5008482;28;20436;-37
2023/11/17 00:41:09;;;;;;;4.70;4.30;;;11.10;99.90;;;;;;5017788;28;20436;-37
2023/11/17 00:43:36;;;;;;;4.50;4.03;;;11.10;99.90;;;;;;5020182;28;20492;-39
2023/11/17 00:46:04;;;;;;;6.27;4.50;;;11.10;99.90;;;;;;5028683;28;20500;-34
2023/11/17 00:48:33;;;;;;;6.27;5.00;;;11.00;99.90;;;;;;5020145;28;20443;-37
2023/11/17 00:51:01;;;;;;;5.10;4.23;;;11.00;99.90;;;;;;5037786;28;20427;-36
2023/11/17 00:53:29;;;;;;;8.90;4.30;;;11.00;99.90;;;;;;5019835;28;21144;-40
2023/11/17 00:56:04;;;;;;;4.80;4.30;;;11.00;99.90;;;;;;5038156;28;20531;-37
2023/11/17 00:58:33;;;;;;;5.60;3.90;;;11.00;99.90;;;;;;5016754;28;20938;-37
2023/11/17 01:01:02;;;;;;;5.43;4.70;;;11.00;99.90;;;;;;5019450;28;20513;-37
2023/11/17 01:03:27;;;;;;;5.22;4.43;;;10.90;99.90;;;;;;5005889;28;20623;-39
2023/11/17 01:05:55;;;;;;;5.13;4.63;;;11.00;99.90;;;;;;5025485;28;20869;-37
2023/11/17 01:08:21;;;;;;;5.30;4.80;;;11.00;99.90;;;;;;5021860;28;20196;-39
2023/11/17 01:10:50;;;;;;;4.83;4.30;;;11.00;99.90;;;;;;5016893;28;20456;-39
2023/11/17 01:13:17;;;;;;;4.93;4.43;;;11.00;99.90;;;;;;5034033;28;20472;-41
2023/11/17 01:15:45;;;;;;;4.10;3.80;;;10.90;99.90;;;;;;5018446;28;20527;-34
2023/11/17 01:18:11;;;;;;;4.97;4.40;;;10.90;99.90;;;;;;5016906;28;20492;-38
2023/11/17 01:20:40;;;;;;;5.95;4.47;;;11.00;99.90;;;;;;5033286;28;20820;-41
2023/11/17 01:23:08;;;;;;;4.90;4.40;;;10.90;99.90;;;;;;5022890;28;20242;-38
2023/11/17 01:25:35;;;;;;;6.22;4.25;;;11.00;99.90;;;;;;5019088;28;20258;-37
2023/11/17 01:28:02;;;;;;;5.50;4.45;;;11.00;99.90;;;;;;5024100;28;20181;-38
2023/11/17 01:30:30;;;;;;;6.97;4.17;;;11.10;99.90;;;;;;5013541;28;20918;-39
2023/11/17 01:32:56;;;;;;;6.10;5.20;;;11.10;99.80;;;;;;5026107;28;20474;-33
2023/11/17 01:35:22;;;;;;;12.93;4.97;;;11.10;99.80;;;;;;5019053;28;20452;-35
2023/11/17 01:37:49;;;;;;;5.40;4.80;;;11.00;99.80;;;;;;5023241;28;20478;-39
2023/11/17 01:40:15;;;;;;;4.77;4.30;;;11.00;99.90;;;;;;5023652;28;20182;-36
2023/11/17 01:42:42;;;;;;;4.37;3.90;;;11.00;99.80;;;;;;5024287;28;20572;-37
2023/11/17 01:45:08;;;;;;;5.50;4.20;;;11.00;99.80;;;;;;5017551;28;20431;-40
2023/11/17 01:47:39;;;;;;;7.20;4.90;;;11.00;99.90;;;;;;5018501;28;20439;-39
2023/11/17 01:50:11;;;;;;;5.10;4.57;;;11.00;99.80;;;;;;5029432;28;20421;-38
2023/11/17 01:52:40;;;;;;;6.37;5.23;;;11.00;99.80;;;;;;5014378;28;20447;-40
2023/11/17 01:55:09;;;;;;;6.20;5.00;;;10.90;99.80;;;;;;5006903;28;20532;-39
2023/11/17 01:57:38;;;;;;;6.40;4.53;;;10.90;99.90;;;;;;5029982;28;21142;-37
2023/11/17 02:00:13;;;;;;;6.47;4.93;;;10.90;99.90;;;;;;5023862;28;20901;-35
2023/11/17 02:02:48;;;;;;;5.30;4.80;;;10.90;99.80;;;;;;5014790;28;20752;-38
2023/11/17 02:05:20;;;;;;;5.78;5.05;;;10.90;99.80;;;;;;5022822;28;20496;-36
2023/11/17 02:08:14;;;;;;;6.37;4.90;;;10.90;99.80;;;;;;5025389;28;20199;-38
2023/11/17 02:10:54;;;;;;;7.13;4.47;;;10.90;99.70;;;;;;5012232;28;20452;-35
2023/11/17 02:13:26;;;;;;;5.23;4.73;;;10.90;99.70;;;;;;5021672;28;20467;-37
2023/11/17 02:15:55;;;;;;;5.30;4.80;;;10.80;99.70;;;;;;5018384;28;20477;-38
2023/11/17 02:18:25;;;;;;;6.03;4.87;;;10.80;99.80;;;;;;5015728;28;20468;-33
2023/11/17 02:20:54;;;;;;;4.47;4.07;;;10.80;99.80;;;;;;5003481;28;20439;-40
2023/11/17 02:23:24;;;;;;;5.03;4.50;;;10.80;99.80;;;;;;5035791;28;20873;-36
2023/11/17 02:25:59;;;;;;;7.20;5.00;;;10.80;99.90;;;;;;5019327;28;20419;-34
2023/11/17 02:28:41;;;;;;;6.07;4.80;;;10.80;99.90;;;;;;5004159;28;20455;-33
2023/11/17 02:31:17;;;;;;;5.80;5.20;;;10.70;99.80;;;;;;5039916;28;20419;-38
2023/11/17 02:33:48;;;;;;;5.30;4.20;;;10.70;99.80;;;;;;5018396;28;20573;-39
2023/11/17 02:36:17;;;;;;;6.30;5.27;;;10.70;99.80;;;;;;5022256;28;20436;-39
2023/11/17 02:38:57;;;;;;;5.03;4.53;;;10.70;99.90;;;;;;5011004;28;21020;-38
2023/11/17 02:41:29;;;;;;;6.97;5.80;;;10.70;99.80;;;;;;5025905;28;20772;-39
2023/11/17 02:44:02;;;;;;;5.00;4.50;;;10.70;99.80;;;;;;5010447;28;20439;-31
2023/11/17 02:46:32;;;;;;;6.07;5.00;;;10.60;99.80;;;;;;5002131;28;20454;-36
2023/11/17 02:49:17;;;;;;;11.95;5.38;;;10.60;99.80;;;;;;5023363;28;21391;-38
2023/11/17 02:51:44;;;;;;;5.50;4.87;;;10.70;99.80;;;;;;5016487;28;20208;-39
2023/11/17 02:54:13;;;;;;;6.60;5.90;;;10.70;99.70;;;;;;5019744;28;20462;-33
2023/11/17 02:56:40;;;;;;;5.63;4.90;;;10.70;99.60;;;;;;4998653;28;21170;-32
2023/11/17 02:59:10;;;;;;;6.13;5.10;;;10.70;99.60;;;;;;5032626;28;20452;-37
2023/11/17 03:01:40;;;;;;;5.38;4.88;;;10.70;99.60;;;;;;5028210;28;20498;-38
2023/11/17 03:04:15;;;;;;;6.72;5.05;;;10.60;99.60;;;;;;5006630;28;20196;-34
2023/11/17 03:06:46;;;;;;;6.70;5.20;;;10.70;99.50;;;;;;5019388;28;20795;-36
2023/11/17 03:09:17;;;;;;;7.33;4.80;;;10.80;99.40;;;;;;5018704;28;20938;-36
2023/11/17 03:11:47;;;;;;;8.33;5.20;;;10.70;99.30;;;;;;5029348;28;20452;-36
2023/11/17 03:14:18;;;;;;;7.70;5.30;;;10.70;99.30;;;;;;5010342;28;21077;-34
2023/11/17 03:16:49;;;;;;;6.70;5.50;;;10.70;99.30;;;;;;5017349;28;21224;-38
2023/11/17 03:19:16;;;;;;;5.63;4.63;;;10.60;99.30;;;;;;5028373;28;20435;-38
2023/11/17 03:21:44;;;;;;;7.90;5.70;;;10.60;99.30;;;;;;5020923;28;21303;-37
2023/11/17 03:24:17;;;;;;;6.95;5.15;;;10.60;99.40;;;;;;5018895;28;21008;-35
2023/11/17 03:26:54;;;;;;;8.00;5.20;;;10.60;99.40;;;;;;5016178;28;20193;-38
2023/11/17 03:29:22;;;;;;;6.70;4.63;;;10.60;99.30;;;;;;5022486;28;20427;-35
2023/11/17 03:31:53;;;;;;;10.63;5.47;;;10.60;99.20;;;;;;5019725;28;21045;-37
2023/11/17 03:34:29;;;;;;;25.00;6.00;;;10.60;99.20;;;;;;5019046;28;21036;-37
2023/11/17 03:36:59;;;;;;;8.75;5.70;;;10.60;99.20;;;;;;5033385;28;20493;-39
2023/11/17 03:39:28;;;;;;;9.00;5.10;;;10.60;99.30;;;;;;5006673;28;20196;-37
2023/11/17 03:41:55;;;;;;;6.57;5.23;;;10.60;99.10;;;;;;5023099;28;20451;-38
2023/11/17 03:44:27;;;;;;;5.93;5.37;;;10.60;99.10;;;;;;5007251;28;20424;-38
2023/11/17 03:46:54;;;;;;;7.30;5.00;;;10.50;99.10;;;;;;5007206;28;20432;-35
2023/11/17 03:49:26;;;;;;;5.93;4.43;;;10.50;99.10;;;;;;4995886;28;21248;-35
2023/11/17 03:51:56;;;;;;;8.37;5.40;;;10.50;99.10;;;;;;5019015;28;20598;-35
2023/11/17 03:54:22;;;;;;;7.77;5.53;;;10.50;99.10;;;;;;4982887;28;20420;-36
2023/11/17 03:56:52;;;;;;;8.70;6.30;;;10.50;99.20;;;;;;5035295;28;21039;-38
2023/11/17 03:59:22;;;;;;;8.07;5.00;;;10.40;99.10;;;;;;4997584;28;20473;-37
2023/11/17 04:01:49;;;;;;;5.53;5.00;;;10.50;99.20;;;;;;5022670;28;20447;-38
2023/11/17 04:04:17;;;;;;;10.10;5.37;;;10.40;99.10;;;;;;5031211;28;20419;-36
2023/11/17 04:06:50;;;;;;;11.10;5.20;;;10.40;99.10;;;;;;5019698;28;20501;-40
2023/11/17 04:09:24;;;;;;;8.10;5.80;;;10.40;99.10;;;;;;5018991;28;20427;-34
2023/11/17 04:11:54;;;;;;;6.70;5.30;;;10.40;99.10;;;;;;5020100;28;20517;-39
2023/11/17 04:14:23;;;;;;;6.87;5.27;;;10.40;99.20;;;;;;5020069;28;21376;-41
2023/11/17 04:16:52;;;;;;;7.67;6.87;;;10.50;99.10;;;;;;5002866;28;20471;-37
2023/11/17 04:19:19;;;;;;;8.43;5.50;;;10.50;99.10;;;;;;5023336;28;21142;-37
2023/11/17 04:21:46;;;;;;;7.17;5.23;;;10.40;99.00;;;;;;4999302;28;20451;-39
2023/11/17 04:24:13;;;;;;;7.00;5.33;;;10.40;99.00;;;;;;5036541;28;20441;-37
2023/11/17 04:26:40;;;;;;;8.97;6.73;;;10.40;99.10;;;;;;5012380;28;21014;-36
2023/11/17 04:29:09;;;;;;;10.97;6.13;;;10.40;99.10;;;;;;5020021;28;20420;-36
2023/11/17 04:31:35;;;;;;;9.30;6.33;;;10.40;99.10;;;;;;5009592;28;20447;-38
2023/11/17 04:34:01;;;;;;;8.80;5.87;;;10.40;99.20;;;;;;5012001;28;21017;-38
2023/11/17 04:36:27;;;;;;;7.43;6.03;;;10.40;99.20;;;;;;5021420;28;20442;-37
2023/11/17 04:38:55;;;;;;;8.10;6.53;;;10.40;99.20;;;;;;5036571;28;20180;-34
2023/11/17 04:41:23;;;;;;;9.67;6.60;;;10.40;99.10;;;;;;5025501;28;20439;-38
2023/11/17 04:43:49;;;;;;;9.30;5.93;;;10.40;99.10;;;;;;5002617;28;20457;-37
2023/11/17 04:46:22;;;;;;;12.77;6.80;;;10.40;99.10;;;;;;5022543;28;20422;-39
2023/11/17 04:48:50;;;;;;;9.10;6.13;;;10.40;99.10;;;;;;5024854;28;20447;-38
2023/11/17 04:51:47;;;;;;;7.93;6.40;;;10.40;99.20;;;;;;5006057;28;20478;-35
2023/11/17 04:54:14;;;;;;;8.07;5.60;;;10.30;99.10;;;;;;5035111;28;20441;-37
2023/11/17 04:56:43;;;;;;;10.70;6.45;;;10.30;99.20;;;;;;5022459;28;21214;-35
2023/11/17 04:59:12;;;;;;;7.80;6.07;;;10.30;99.20;;;;;;5019029;28;20200;-37
2023/11/17 05:01:38;;;;;;;6.70;5.63;;;10.40;99.20;;;;;;4986963;28;20455;-33
2023/11/17 05:04:07;;;;;;;8.83;6.00;;;10.50;99.00;;;;;;5001287;28;20322;-36
2023/11/17 05:06:36;;;;;;;10.10;6.17;;;10.50;98.90;;;;;;5022388;28;20462;-37
2023/11/17 05:09:10;;;;;;;7.07;5.50;;;10.40;98.90;;;;;;4997204;28;20431;-34
2023/11/17 05:11:39;;;;;;;13.03;6.50;;;10.40;99.00;;;;;;4992127;28;20981;-37
2023/11/17 05:14:06;;;;;;;9.50;6.03;;;10.40;99.10;;;;;;5010650;28;20436;-37
2023/11/17 05:16:34;;;;;;;8.70;6.60;;;10.40;99.20;;;;;;5019846;28;21067;-38
2023/11/17 05:19:06;;;;;;;7.53;5.90;;;10.30;99.20;;;;;;5025294;28;20453;-37
2023/11/17 05:21:32;;;;;;;7.97;6.50;;;10.30;99.20;;;;;;4987158;28;20808;-40
2023/11/17 05:24:00;;;;;;;7.78;6.22;;;10.30;99.30;;;;;;5022335;28;20477;-39
2023/11/17 05:26:26;;;;;;;8.07;5.77;;;10.30;99.40;;;;;;5015451;28;20992;-39
2023/11/17 05:28:54;;;;;;;9.57;6.23;;;10.30;99.30;;;;;;4998704;28;20420;-34
2023/11/17 05:31:20;;;;;;;7.57;6.30;;;10.30;99.30;;;;;;5022703;28;20444;-36
2023/11/17 05:33:49;;;;;;;7.00;6.00;;;10.30;99.30;;;;;;5006597;28;21000;-38
2023/11/17 05:36:16;;;;;;;6.33;5.63;;;10.30;99.30;;;;;;4994663;28;20420;-37
2023/11/17 05:38:48;;;;;;;7.70;6.70;;;10.30;99.40;;;;;;5010835;28;20446;-38
2023/11/17 05:41:14;;;;;;;6.10;5.50;;;10.30;99.40;;;;;;5008055;28;21228;-40
2023/11/17 05:43:45;;;;;;;7.40;6.70;;;10.30;99.60;;;;;;5005155;28;21215;-36
2023/11/17 05:46:15;;;;;;;8.93;6.53;;;10.30;99.60;;;;;;5027824;28;20487;-38
2023/11/17 05:48:41;;;;;;;7.23;6.40;;;10.20;99.60;;;;;;5022731;28;20434;-37
2023/11/17 05:51:11;;;;;;;7.85;6.47;;;10.20;99.60;;;;;;5021951;28;20434;-36
2023/11/17 05:53:38;;;;;;;13.00;7.80;;;10.20;99.60;;;;;;5019374;28;20197;-37
2023/11/17 05:56:08;;;;;;;9.67;7.10;;;10.30;99.50;;;;;;5011419;28;20450;-37
2023/11/17 05:58:35;;;;;;;7.93;7.00;;;10.30;99.50;;;;;;5003773;28;21120;-35
2023/11/17 06:01:01;;;;;;;7.80;6.60;;;10.20;99.50;;;;;;5033728;28;20457;-34
2023/11/17 06:03:29;;;;;;;9.13;6.90;;;10.20;99.60;;;;;;5024195;28;20850;-37
2023/11/17 06:05:55;;;;;;;8.33;6.60;;;10.20;99.60;;;;;;5027071;28;20812;-39
2023/11/17 06:08:24;;;;;;;10.50;7.50;;;10.20;99.60;;;;;;4995091;28;20440;-39
2023/11/17 06:10:50;;;;;;;9.83;6.60;;;10.20;99.60;;;;;;5029703;28;20505;-38
2023/11/17 06:13:17;;;;;;;8.85;7.40;;;10.20;99.70;;;;;;5018225;28;20453;-36
2023/11/17 06:15:50;;;;;;;9.00;7.30;;;10.20;99.70;;;;;;5009156;28;20188;-36
2023/11/17 06:18:17;;;;;;;8.53;6.87;;;10.20;99.70;;;;;;5032588;28;20513;-37
2023/11/17 06:20:47;;;;;;;8.73;7.20;;;10.30;99.60;;;;;;5027521;28;20457;-36
2023/11/17 06:23:18;;;;;;;9.53;7.50;;;10.20;99.90;;;;;;5027694;28;20539;-37
2023/11/17 06:25:47;;;;;;;9.27;7.07;;;10.20;99.70;;;;;;5021727;28;21325;-37
2023/11/17 06:28:15;;;;;;;6.77;6.07;;;10.20;99.70;;;;;;5018307;28;20277;-40
2023/11/17 06:30:42;;;;;;;11.10;7.80;;;10.20;99.60;;;;;;5021703;28;20479;-33
2023/11/17 06:33:11;;;;;;;10.43;7.30;;;10.20;99.60;;;;;;5003647;28;20447;-39
2023/11/17 06:35:37;;;;;;;15.82;7.45;;;10.20;99.60;;;;;;4997849;28;20489;-36
2023/11/17 06:38:08;;;;;;;9.48;7.60;;;10.20;99.70;;;;;;5022423;28;20266;-33
2023/11/17 06:40:36;;;;;;;10.73;7.97;;;10.30;99.60;;;;;;5004453;28;20185;-36
2023/11/17 06:43:02;;;;;;;11.07;7.90;;;10.30;99.50;;;;;;5026033;28;21260;-37
2023/11/17 06:45:29;;;;;;;9.20;7.17;;;10.30;99.50;;;;;;5023532;28;20185;-36
2023/11/17 06:47:56;;;;;;;10.37;7.40;;;10.30;99.50;;;;;;5026073;28;21344;-38
2023/11/17 06:50:23;;;;;;;10.63;7.50;;;10.30;99.60;;;;;;5037406;28;20439;-35
2023/11/17 06:52:49;;;;;;;10.87;7.07;;;10.20;99.60;;;;;;5028650;28;20462;-39
2023/11/17 06:55:15;;;;;;;9.90;7.63;;;10.20;99.90;;;;;;5003025;28;20450;-37
2023/11/17 06:57:43;;;;;;;11.00;7.53;;;10.20;99.70;;;;;;4995451;28;20459;-37
2023/11/17 07:00:15;;;;;;;9.00;6.80;;;10.20;99.80;;;;;;5016276;28;20491;-37
2023/11/17 07:02:41;;;;;;;11.27;7.63;;;10.20;99.90;;;;;;4988108;28;20486;-35
2023/11/17 07:05:10;;;;;;;11.30;7.70;;;10.20;99.90;;;;;;5022864;28;20433;-37
2023/11/17 07:07:39;;;;;;;10.90;7.68;;;10.20;99.90;;;;;;5033815;28;20420;-38
2023/11/17 07:10:14;;;;;;;9.23;7.70;;;10.20;99.90;;;;;;5022917;28;20530;-37
2023/11/17 07:12:41;;;;;;;10.60;8.20;;;10.20;99.90;;;;;;5022570;28;20825;-31
2023/11/17 07:15:11;;;;;;;13.67;7.40;;;10.30;99.80;;;;;;5008238;28;20578;-36
2023/11/17 07:17:42;;;;;;;11.70;7.53;;;10.20;99.70;;;;;;4999367;28;20541;-33
2023/11/17 07:20:12;;;;;;;9.17;8.00;;;10.20;99.70;;;;;;5022240;28;20423;-40
2023/11/17 07:22:41;;;;;;;11.43;8.40;;;10.20;99.80;;;;;;5002927;28;20550;-41
2023/11/17 07:25:10;;;;;;;9.67;7.83;;;10.20;99.90;;;;;;5027240;28;20442;-37
2023/11/17 07:27:43;;;;;;;9.17;7.40;;;10.10;99.90;;;;;;5016057;28;20992;-37
2023/11/17 07:30:15;;;;;;;10.50;7.83;;;10.20;99.90;;;;;;5022833;28;21169;-38
2023/11/17 07:32:46;;;;;;;12.32;9.23;;;10.10;99.90;;;;;;5011988;28;20459;-36
2023/11/17 07:35:14;;;;;;;12.90;7.90;;;10.10;99.90;;;;;;5031978;28;20201;-38
2023/11/17 07:37:44;;;;;;;12.77;9.32;;;10.20;99.90;;;;;;5001620;28;20560;-38
2023/11/17 07:40:13;;;;;;;15.53;8.97;;;10.20;99.90;;;;;;5002400;28;20177;-34
2023/11/17 07:42:43;;;;;;;13.60;8.80;;;10.20;99.80;;;;;;5023109;28;20463;-35
2023/11/17 07:45:11;;;;;;;12.70;8.80;;;10.30;99.70;;;;;;5019409;28;20867;-37
2023/11/17 07:47:38;;;;;;;15.97;9.10;;;10.30;99.70;;;;;;4981925;28;20437;-36
2023/11/17 07:50:07;;;;;;;15.90;8.93;;;10.20;99.70;;;;;;5026061;28;20426;-41
2023/11/17 07:52:34;;;;;;;14.55;9.65;;;10.20;99.90;;;;;;5016205;28;20602;-36
2023/11/17 07:55:00;;;;;;;11.40;8.37;;;10.20;99.90;;;;;;5023839;28;20275;-35
2023/11/17 07:57:31;;;;;;;12.98;9.20;;;10.20;99.80;;;;;;5031974;28;20470;-35
2023/11/17 07:59:57;;;;;;;14.80;10.00;;;10.20;99.80;;;;;;5000637;28;20220;-38
2023/11/17 08:02:24;;;;;;;17.47;11.57;;;10.20;99.70;;;;;;5027073;28;20454;-41
2023/11/17 08:04:50;;;;;;;14.55;9.05;;;10.20;99.70;;;;;;5019194;28;20537;-39
2023/11/17 08:07:17;;;;;;;16.90;11.20;;;10.20;99.80;;;;;;5018855;28;20263;-40
2023/11/17 08:09:43;;;;;;;16.05;11.15;;;10.20;99.70;;;;;;4987436;28;20438;-41
2023/11/17 08:12:11;;;;;;;17.37;11.13;;;10.20;99.70;;;;;;5024394;28;20779;-36
2023/11/17 08:14:37;;;;;;;18.80;12.37;;;10.20;99.70;;;;;;5015858;28;20558;-39
2023/11/17 08:17:03;;;;;;;18.67;11.30;;;10.20;99.70;;;;;;5011559;28;20548;-35
2023/11/17 08:19:32;;;;;;;17.65;11.80;;;10.20;99.80;;;;;;5019062;28;20565;-39
2023/11/17 08:21:58;;;;;;;15.90;10.37;;;10.20;99.70;;;;;;5016662;28;20347;-39
2023/11/17 08:24:25;;;;;;;16.40;11.80;;;10.30;99.70;;;;;;5004300;28;20424;-33
2023/11/17 08:26:54;;;;;;;17.60;11.90;;;10.30;99.90;;;;;;5006100;28;20480;-29
2023/11/17 08:29:20;;;;;;;15.53;11.00;;;10.20;99.80;;;;;;5022890;28;20499;-34
2023/11/17 08:31:49;;;;;;;18.95;13.48;;;10.20;99.90;;;;;;5026734;28;20443;-31
2023/11/17 08:34:16;;;;;;;22.00;12.83;;;10.20;99.90;;;;;;4976381;28;20281;-33
2023/11/17 08:36:47;;;;;;;18.57;11.70;;;10.20;99.90;;;;;;5012570;28;20466;-31
2023/11/17 08:39:25;;;;;;;23.00;14.40;;;10.20;99.90;;;;;;5043200;22;20831;-35
2023/11/17 08:41:54;;;;;;;16.00;11.60;;;10.20;99.90;;;;;;5023540;28;20633;-37
2023/11/17 08:44:22;;;;;;;17.13;12.30;;;10.20;99.90;;;;;;5061081;28;20426;-37
2023/11/17 08:46:52;;;;;;;16.67;12.07;;;10.10;99.90;;;;;;5063373;28;20568;-40
2023/11/17 08:49:18;;;;;;;22.03;13.47;;;10.10;99.90;;;;;;5047973;28;20535;-34
2023/11/17 08:51:49;;;;;;;20.93;12.43;;;10.10;99.90;;;;;;5048171;28;20450;-34
2023/11/17 08:54:17;;;;;;;20.00;12.20;;;10.10;99.90;;;;;;5046408;28;20433;-39
2023/11/17 08:56:48;;;;;;;20.50;12.60;;;10.10;99.90;;;;;;5087743;22;20468;-82
2023/11/17 08:59:14;;;;;;;17.67;11.83;;;10.10;99.90;;;;;;4981397;28;20964;-83
2023/11/17 09:01:43;;;;;;;19.57;12.17;;;10.10;99.90;;;;;;4999978;28;20451;-86
2023/11/17 09:04:09;;;;;;;16.20;12.80;;;10.10;99.90;;;;;;5005544;28;20433;-84
2023/11/17 09:06:35;;;;;;;17.87;11.33;;;10.10;99.90;;;;;;5026444;28;20429;-86
2023/11/17 09:09:04;;;;;;;17.87;12.27;;;10.10;99.90;;;;;;4986875;28;20438;-84
2023/11/17 09:11:32;;;;;;;20.63;13.00;;;10.10;99.90;;;;;;4999748;28;20433;-85
2023/11/17 09:14:00;;;;;;;18.83;12.13;;;10.10;99.90;;;;;;4980426;28;20462;-84
2023/11/17 09:16:26;;;;;;;19.73;11.67;;;10.00;99.90;;;;;;4976294;28;20433;-82
2023/11/17 09:18:53;;;;;;;22.05;13.00;;;10.10;99.90;;;;;;5011283;28;20459;-85
2023/11/17 09:21:21;;;;;;;18.90;11.93;;;10.10;99.90;;;;;;5008682;28;20209;-85
2023/11/17 09:23:52;;;;;;;19.20;10.97;;;10.10;99.90;;;;;;5005268;28;20442;-85
2023/11/17 09:26:22;;;;;;;15.73;11.90;;;10.10;99.90;;;;;;5021477;28;20458;-84
2023/11/17 09:28:48;;;;;;;19.73;12.27;;;10.10;99.90;;;;;;5047064;28;20204;-86
2023/11/17 09:31:16;;;;;;;18.93;12.63;;;10.20;99.90;;;;;;5025663;28;20433;-85
2023/11/17 09:33:45;;;;;;;18.67;12.20;;;10.10;99.90;;;;;;4985853;28;20433;-87
2023/11/17 09:36:11;;;;;;;21.13;12.87;;;10.20;99.90;;;;;;4997970;28;20442;-87
2023/11/17 09:38:40;;;;;;;17.47;12.10;;;10.10;99.90;;;;;;5010854;28;20911;-84
2023/11/17 09:41:09;;;;;;;18.33;12.77;;;10.10;99.90;;;;;;4998689;28;20462;-87
2023/11/17 09:43:39;;;;;;;20.43;12.70;;;10.10;99.90;;;;;;5013872;28;20418;-85
2023/11/17 09:46:10;;;;;;;22.10;13.60;;;10.10;99.90;;;;;;4997264;28;21800;-85
2023/11/17 09:48:38;;;;;;;19.37;12.23;;;10.10;99.90;;;;;;4989011;28;20837;-83
2023/11/17 09:51:05;;;;;;;17.55;12.52;;;10.20;99.90;;;;;;4984244;28;20498;-85
2023/11/17 09:53:37;;;;;;;19.87;12.70;;;10.20;99.90;;;;;;4991896;28;20295;-84
2023/11/17 09:56:08;;;;;;;20.47;13.70;;;10.20;99.90;;;;;;4990818;28;20517;-84
2023/11/17 09:58:36;;;;;;;21.73;14.00;;;10.20;99.90;;;;;;5015583;28;20471;-83
2023/11/17 10:01:02;;;;;;;19.53;13.47;;;10.20;99.90;;;;;;4987295;28;20452;-88
2023/11/17 10:03:29;;;;;;;22.37;13.33;;;10.20;99.90;;;;;;5009082;28;20438;-85
2023/11/17 10:06:04;;;;;;;19.85;13.63;;;10.10;99.90;;;;;;5019396;28;20461;-82
2023/11/17 10:08:34;;;;;;;23.83;13.27;;;10.20;99.90;;;;;;5005460;28;20209;-84
2023/11/17 10:11:03;;;;;;;20.50;13.30;;;10.20;99.90;;;;;;4989136;28;20443;-82
2023/11/17 10:14:02;;;;;;;18.37;12.03;;;10.20;99.90;;;;;;5015127;28;20897;-82
2023/11/17 10:16:32;;;;;;;19.77;12.90;;;10.20;99.90;;;;;;5032023;28;20567;-82
2023/11/17 10:18:59;;;;;;;18.90;12.33;;;10.20;99.90;;;;;;5001515;28;20664;-84
2023/11/17 10:21:28;;;;;;;23.40;13.83;;;10.10;99.90;;;;;;4981926;28;20468;-82
2023/11/17 10:23:54;;;;;;;18.07;13.07;;;10.20;99.90;;;;;;5018709;28;20444;-84
2023/11/17 10:26:25;;;;;;;20.17;13.40;;;10.10;99.90;;;;;;4995878;28;20447;-85
2023/11/17 10:28:53;;;;;;;20.50;13.38;;;10.10;99.90;;;;;;5020565;28;20458;-82
2023/11/17 10:31:20;;;;;;;23.17;14.70;;;10.20;99.90;;;;;;5003126;28;20281;-83
2023/11/17 10:33:46;;;;;;;18.80;12.67;;;10.20;99.90;;;;;;5017382;28;20447;-89
2023/11/17 10:36:20;;;;;;;19.50;13.60;;;10.20;99.90;;;;;;5019156;28;20466;-85
2023/11/17 10:39:07;;;;;;;19.67;13.43;;;10.20;99.90;;;;;;5033857;28;20434;-85
2023/11/17 10:41:35;;;;;;;21.73;14.40;;;10.20;99.90;;;;;;5004178;28;20522;-84
2023/11/17 10:44:08;;;;;;;20.17;13.90;;;10.20;99.90;;;;;;5043941;28;20428;-83
2023/11/17 10:46:47;;;;;;;17.90;12.10;;;10.20;99.90;;;;;;5002587;28;20458;-82
2023/11/17 10:49:16;;;;;;;20.50;13.63;;;10.20;99.90;;;;;;4996385;28;21041;-87
2023/11/17 10:51:49;;;;;;;20.55;13.23;;;10.20;99.90;;;;;;4998649;28;20499;-84
2023/11/17 10:54:21;;;;;;;22.90;14.10;;;10.20;99.90;;;;;;5023334;28;20197;-86
2023/11/17 10:56:48;;;;;;;21.83;13.97;;;10.20;99.90;;;;;;5034227;28;20552;-85
2023/11/17 10:59:19;;;;;;;20.73;14.15;;;10.20;99.90;;;;;;5027799;28;20420;-88
2023/11/17 11:01:51;;;;;;;17.03;11.63;;;10.30;99.90;;;;;;5000191;28;20729;-85
2023/11/17 11:04:25;;;;;;;21.30;13.87;;;10.30;99.90;;;;;;4999890;28;21012;-85
2023/11/17 11:07:00;;;;;;;22.83;13.37;;;10.20;99.90;;;;;;4996575;28;20452;-85
2023/11/17 11:09:38;;;;;;;19.08;13.20;;;10.20;99.90;;;;;;5018236;28;20537;-87
2023/11/17 11:12:07;;;;;;;19.25;13.13;;;10.20;99.90;;;;;;4991834;28;20196;-93
2023/11/17 11:14:34;;;;;;;23.48;13.35;;;10.30;99.90;;;;;;4986575;28;20294;-91
2023/11/17 11:17:00;;;;;;;20.33;13.67;;;10.40;99.90;;;;;;5018008;28;20216;-88
2023/11/17 11:19:31;;;;;;;24.47;13.37;;;10.40;99.80;;;;;;4990270;28;21114;-87
2023/11/17 11:22:01;;;;;;;20.37;13.00;;;10.40;99.80;;;;;;4997403;28;20465;-89
2023/11/17 11:24:36;;;;;;;20.67;13.98;;;10.40;99.90;;;;;;5031621;28;20424;-94
2023/11/17 11:27:05;;;;;;;20.10;13.37;;;10.30;99.90;;;;;;5015766;28;20514;-88
2023/11/17 11:29:32;;;;;;;19.77;12.23;;;10.30;99.90;;;;;;5015340;28;20431;-86
2023/11/17 11:32:00;;;;;;;18.90;11.93;;;10.30;99.90;;;;;;5007600;28;20517;-87
2023/11/17 11:34:26;;;;;;;22.95;14.95;;;10.30;99.90;;;;;;5019976;28;20796;-87
2023/11/17 11:36:55;;;;;;;20.60;13.07;;;10.30;99.90;;;;;;5019434;28;20547;-88
2023/11/17 11:39:22;;;;;;;24.40;13.63;;;10.40;99.90;;;;;;5023238;28;20454;-87
2023/11/17 11:41:51;;;;;;;22.37;14.30;;;10.30;99.90;;;;;;4986131;28;20487;-87
2023/11/17 11:44:20;;;;;;;21.20;14.77;;;10.30;99.90;;;;;;5002713;28;20468;-86
2023/11/17 11:46:45;;;;;;;21.67;15.02;;;10.30;99.90;;;;;;5019355;28;20428;-86
2023/11/17 11:49:16;;;;;;;21.60;14.45;;;10.30;99.90;;;;;;5021120;28;20189;-86
2023/11/17 11:51:53;;;;;;;21.03;13.47;;;10.40;99.90;;;;;;4998581;28;20217;-88
2023/11/17 11:54:23;;;;;;;31.20;14.33;;;10.40;99.90;;;;;;5007802;28;20912;-87
2023/11/17 11:56:55;;;;;;;21.57;14.70;;;10.40;99.90;;;;;;5020557;28;20517;-86
2023/11/17 11:59:23;;;;;;;22.27;14.23;;;10.40;99.90;;;;;;5013647;28;20522;-86
2023/11/17 12:01:51;;;;;;;18.90;12.63;;;10.30;99.90;;;;;;4998519;28;20435;-86
2023/11/17 12:04:18;;;;;;;24.70;14.57;;;10.30;99.90;;;;;;4998313;28;20526;-87
2023/11/17 12:06:44;;;;;;;26.00;13.88;;;10.30;99.90;;;;;;5013048;28;20432;-85
2023/11/17 12:09:20;;;;;;;24.75;15.18;;;10.30;99.90;;;;;;5014650;28;20189;-86
2023/11/17 12:11:53;;;;;;;26.47;15.20;;;10.40;99.90;;;;;;4982420;28;20196;-87
2023/11/17 12:14:29;;;;;;;23.47;14.03;;;10.40;99.90;;;;;;4997781;28;20440;-86
2023/11/17 12:16:57;;;;;;;22.20;15.37;;;10.40;99.90;;;;;;5014393;28;20517;-85
2023/11/17 12:19:33;;;;;;;20.20;13.50;;;10.40;99.90;;;;;;5006838;28;21197;-87
2023/11/17 12:22:04;;;;;;;23.47;15.03;;;10.40;99.90;;;;;;5004081;28;20454;-85
2023/11/17 12:24:33;;;;;;;19.60;14.13;;;10.30;99.90;;;;;;4998301;28;20436;-87
2023/11/17 12:27:04;;;;;;;21.33;13.47;;;10.30;99.90;;;;;;5002804;28;20491;-86
2023/11/17 12:29:31;;;;;;;22.50;14.97;;;10.30;99.90;;;;;;4998210;28;20513;-87
2023/11/17 12:32:05;;;;;;;24.50;14.05;;;10.30;99.90;;;;;;5005697;28;20462;-86
2023/11/17 12:34:31;;;;;;;25.53;16.13;;;10.30;99.90;;;;;;5014144;28;20311;-86
2023/11/17 12:37:02;;;;;;;24.93;15.40;;;10.40;99.90;;;;;;4997566;28;20618;-87
2023/11/17 12:39:36;;;;;;;21.80;14.93;;;10.30;99.90;;;;;;4998250;28;20500;-87
2023/11/17 12:42:05;;;;;;;24.47;14.87;;;10.30;99.90;;;;;;4990232;28;21012;-87
2023/11/17 12:44:35;;;;;;;23.85;14.68;;;10.40;99.90;;;;;;5009057;28;20438;-86
2023/11/17 12:47:02;;;;;;;23.37;14.50;;;10.50;99.90;;;;;;4981398;28;20490;-85
2023/11/17 12:49:31;;;;;;;23.77;14.82;;;10.50;99.90;;;;;;5025550;28;20739;-87